Time;durP1;ratioP1;P1;durP2;ratioP2;P2;SDS_P1;SDS_P2;PMS_P1;PMS_P2;Temp;Humidity;BMP_temperature;BMP_pressure;BME280_temperature;BME280_humidity;BME280_pressure;Samples;Min_cycle;Max_cycle;Signal;HPM_P1;HPM_P2
2023/06/07 00:00:59;;;;;;;10.45;5.47;;;;;;;12.85;100.00;92726.78;4953122;28;20041;-78
2023/06/07 00:03:26;;;;;;;10.95;5.65;;;;;;;12.87;100.00;92719.38;4964998;28;20086;-78
2023/06/07 00:05:52;;;;;;;11.88;6.45;;;;;;;12.87;100.00;92716.75;4957541;28;20062;-78
2023/06/07 00:08:20;;;;;;;16.38;6.65;;;;;;;12.88;100.00;92707.81;4968795;28;20039;-78
2023/06/07 00:10:46;;;;;;;14.65;7.45;;;;;;;12.89;100.00;92698.84;4961353;28;20031;-78
2023/06/07 00:13:11;;;;;;;20.63;7.45;;;;;;;12.88;100.00;92689.44;4961660;28;20053;-78
2023/06/07 00:15:37;;;;;;;15.35;7.15;;;;;;;12.89;100.00;92704.13;4966748;28;20038;-78
2023/06/07 00:18:02;;;;;;;17.70;7.18;;;;;;;12.89;100.00;92704.88;4967940;28;20031;-78
2023/06/07 00:20:30;;;;;;;15.07;7.38;;;;;;;12.89;100.00;92712.75;4977418;28;20070;-78
2023/06/07 00:22:56;;;;;;;14.30;6.53;;;;;;;12.89;100.00;92712.00;4969371;28;20047;-77
2023/06/07 00:25:24;;;;;;;11.85;6.68;;;;;;;12.86;100.00;92705.47;4958029;29;20051;-77
2023/06/07 00:27:50;;;;;;;12.57;6.53;;;;;;;12.82;100.00;92704.50;4968219;28;20042;-78
2023/06/07 00:30:19;;;;;;;15.52;7.22;;;;;;;12.81;100.00;92702.16;4967816;28;20035;-79
2023/06/07 00:32:45;;;;;;;15.90;6.75;;;;;;;12.79;100.00;92699.06;4951256;28;20054;-78
2023/06/07 00:35:12;;;;;;;14.55;6.63;;;;;;;12.79;100.00;92709.56;4963888;28;20452;-78
2023/06/07 00:37:38;;;;;;;12.98;6.82;;;;;;;12.77;100.00;92701.22;4954544;28;20035;-78
2023/06/07 00:40:05;;;;;;;13.07;6.80;;;;;;;12.77;100.00;92706.47;4966906;28;20027;-78
2023/06/07 00:42:34;;;;;;;15.07;6.43;;;;;;;12.74;100.00;92702.56;4952498;29;20039;-78
2023/06/07 00:44:59;;;;;;;15.35;6.70;;;;;;;12.73;100.00;92716.00;4967245;28;20034;-79
2023/06/07 00:47:26;;;;;;;14.93;6.35;;;;;;;12.71;100.00;92713.66;4957733;28;20077;-79
2023/06/07 00:49:53;;;;;;;20.63;6.72;;;;;;;12.66;100.00;92719.81;4955971;28;20542;-78
2023/06/07 00:52:20;;;;;;;11.57;5.93;;;;;;;12.60;100.00;92720.19;4967331;28;20035;-78
2023/06/07 00:54:46;;;;;;;16.52;7.30;;;;;;;12.53;100.00;92710.06;4968424;28;20042;-78
2023/06/07 00:57:13;;;;;;;17.23;7.28;;;;;;;12.54;100.00;92702.97;4963464;28;20035;-78
2023/06/07 00:59:39;;;;;;;12.07;6.35;;;;;;;12.49;100.00;92716.97;4955040;28;20097;-78
2023/06/07 01:02:06;;;;;;;14.60;6.47;;;;;;;12.44;100.00;92702.09;4952158;28;20501;-78
2023/06/07 01:04:34;;;;;;;12.48;6.70;;;;;;;12.44;100.00;92703.94;4959527;28;20090;-78
2023/06/07 01:07:02;;;;;;;13.10;6.80;;;;;;;12.46;100.00;92712.31;4969674;28;20101;-79
2023/06/07 01:09:29;;;;;;;14.50;6.68;;;;;;;12.45;100.00;92708.13;4958385;28;20047;-78
2023/06/07 01:11:56;;;;;;;16.13;6.75;;;;;;;12.44;100.00;92703.94;4970168;28;20046;-77
2023/06/07 01:14:24;;;;;;;18.17;6.85;;;;;;;12.42;100.00;92695.59;4971959;28;20417;-78
2023/06/07 01:16:52;;;;;;;14.93;6.68;;;;;;;12.44;100.00;92706.56;4959571;28;20040;-78
2023/06/07 01:19:25;;;;;;;14.13;6.68;;;;;;;12.47;100.00;92711.22;4951337;29;20035;-79
2023/06/07 01:21:56;;;;;;;16.10;7.53;;;;;;;12.51;100.00;92714.84;4932450;29;20110;-77
2023/06/07 01:24:22;;;;;;;15.70;6.75;;;;;;;12.48;100.00;92715.44;4946539;29;20071;-78
2023/06/07 01:26:53;;;;;;;17.00;7.10;;;;;;;12.45;100.00;92713.38;4928452;29;20039;-78
2023/06/07 01:29:21;;;;;;;15.90;7.18;;;;;;;12.42;100.00;92711.34;4948290;29;20062;-78
2023/06/07 01:31:49;;;;;;;17.20;7.18;;;;;;;12.39;100.00;92719.81;4943175;29;20506;-78
2023/06/07 01:34:15;;;;;;;14.82;7.03;;;;;;;12.39;100.00;92732.94;4946113;29;20027;-78
2023/06/07 01:36:41;;;;;;;15.65;6.32;;;;;;;12.37;100.00;92735.84;4937365;29;20042;-79
2023/06/07 01:39:09;;;;;;;16.20;6.47;;;;;;;12.38;100.00;92745.25;4933458;29;20132;-79
2023/06/07 01:41:36;;;;;;;13.73;6.80;;;;;;;12.39;100.00;92738.19;4927181;29;20390;-79
2023/06/07 01:44:02;;;;;;;16.50;7.40;;;;;;;12.38;100.00;92729.50;4925116;29;20031;-78
2023/06/07 01:46:29;;;;;;;16.38;7.32;;;;;;;12.37;100.00;92727.97;4951130;29;20090;-79
2023/06/07 01:48:55;;;;;;;14.93;7.28;;;;;;;12.35;100.00;92724.84;4941014;29;20051;-79
2023/06/07 01:51:20;;;;;;;17.30;7.70;;;;;;;12.34;100.00;92714.63;4925207;29;20051;-79
2023/06/07 01:53:49;;;;;;;17.48;8.00;;;;;;;12.33;100.00;92703.34;4926673;29;20035;-79
2023/06/07 01:56:34;;;;;;;13.98;6.53;;;;;;;12.32;100.00;92706.28;4945669;29;20489;-79
2023/06/07 01:59:12;;;;;;;17.15;7.35;;;;;;;12.32;100.00;92701.03;4933985;29;21144;-79
2023/06/07 02:02:07;;;;;;;18.25;7.50;;;;;;;12.32;100.00;92703.66;4944613;28;20038;-79
2023/06/07 02:04:40;;;;;;;16.73;8.27;;;;;;;12.29;100.00;92708.44;4945201;29;20036;-78
2023/06/07 02:07:15;;;;;;;17.30;8.23;;;;;;;12.27;100.00;92702.69;4938894;29;20094;-78
2023/06/07 02:09:44;;;;;;;15.75;7.38;;;;;;;12.29;100.00;92705.81;4941582;29;20134;-79
2023/06/07 02:12:11;;;;;;;15.27;7.65;;;;;;;12.26;100.00;92703.75;4944774;29;20047;-79
2023/06/07 02:14:36;;;;;;;16.13;8.13;;;;;;;12.25;100.00;92690.94;4939005;29;20342;-79
2023/06/07 02:17:07;;;;;;;16.08;7.45;;;;;;;12.22;100.00;92689.63;4932174;29;20043;-79
2023/06/07 02:19:35;;;;;;;18.65;7.63;;;;;;;12.21;100.00;92689.94;4937955;29;20382;-79
2023/06/07 02:22:01;;;;;;;20.60;8.63;;;;;;;12.18;100.00;92688.69;4947065;29;20047;-79
2023/06/07 02:24:27;;;;;;;18.80;7.95;;;;;;;12.21;100.00;92685.47;4933132;29;20481;-79
2023/06/07 02:26:55;;;;;;;16.60;7.97;;;;;;;12.26;100.00;92685.38;4939057;29;20039;-79
2023/06/07 02:29:21;;;;;;;18.88;7.97;;;;;;;12.23;100.00;92688.59;4948159;28;20095;-78
2023/06/07 02:31:49;;;;;;;21.20;8.93;;;;;;;12.18;100.00;92678.19;4911387;29;20131;-79
2023/06/07 02:34:14;;;;;;;18.38;7.80;;;;;;;12.14;100.00;92673.81;4932031;29;20043;-78
2023/06/07 02:36:41;;;;;;;22.13;9.25;;;;;;;12.13;100.00;92683.50;4932894;29;20036;-78
2023/06/07 02:39:10;;;;;;;18.70;8.63;;;;;;;12.14;100.00;92682.44;4934919;29;20082;-78
2023/06/07 02:41:36;;;;;;;20.10;8.45;;;;;;;12.12;100.00;92681.97;4930455;29;20571;-78
2023/06/07 02:44:01;;;;;;;23.13;8.73;;;;;;;12.13;100.00;92682.72;4939377;29;20035;-78
2023/06/07 02:46:27;;;;;;;20.40;8.75;;;;;;;12.09;100.00;92687.78;4940754;29;20050;-78
2023/06/07 02:48:53;;;;;;;20.77;8.73;;;;;;;12.10;100.00;92689.34;4936896;29;20134;-79
2023/06/07 02:51:19;;;;;;;19.45;9.20;;;;;;;12.07;100.00;92689.94;4929686;29;20043;-78
2023/06/07 02:53:45;;;;;;;17.15;8.23;;;;;;;12.05;100.00;92692.84;4915278;29;20035;-79
2023/06/07 02:56:12;;;;;;;19.48;8.80;;;;;;;12.05;100.00;92692.06;4945813;29;20046;-79
2023/06/07 02:58:37;;;;;;;18.60;8.93;;;;;;;12.03;100.00;92686.31;4935173;29;20044;-79
2023/06/07 03:01:07;;;;;;;17.88;8.40;;;;;;;12.00;100.00;92681.66;4916251;29;20039;-78
2023/06/07 03:03:37;;;;;;;18.77;8.45;;;;;;;11.98;100.00;92683.78;4931034;29;20042;-77
2023/06/07 03:06:09;;;;;;;18.15;8.80;;;;;;;11.95;100.00;92694.84;4945546;29;20036;-78
2023/06/07 03:08:36;;;;;;;19.48;8.57;;;;;;;11.97;100.00;92690.09;4936956;29;20705;-79
2023/06/07 03:11:03;;;;;;;20.85;8.77;;;;;;;11.94;100.00;92691.47;4937877;29;20102;-78
2023/06/07 03:13:33;;;;;;;18.08;8.10;;;;;;;11.91;100.00;92691.25;4949497;29;20095;-79
2023/06/07 03:16:01;;;;;;;20.85;9.27;;;;;;;11.88;100.00;92682.88;4939264;29;20064;-79
2023/06/07 03:18:29;;;;;;;18.92;8.65;;;;;;;11.90;100.00;92684.47;4956790;29;20042;-79
2023/06/07 03:21:00;;;;;;;23.73;9.15;;;;;;;11.83;100.00;92696.06;4951115;29;20047;-79
2023/06/07 03:23:25;;;;;;;24.33;9.20;;;;;;;11.81;100.00;92694.81;4950751;28;20126;-79
2023/06/07 03:25:51;;;;;;;20.75;8.80;;;;;;;11.82;100.00;92694.53;4953687;28;20048;-80
2023/06/07 03:28:23;;;;;;;23.88;8.90;;;;;;;11.78;100.00;92688.28;4950140;29;20082;-79
2023/06/07 03:30:49;;;;;;;19.50;8.50;;;;;;;11.74;100.00;92682.06;4952247;28;20119;-78
2023/06/07 03:33:21;;;;;;;20.52;9.10;;;;;;;11.70;100.00;92681.06;4961296;29;20039;-79
2023/06/07 03:35:47;;;;;;;22.70;9.18;;;;;;;11.69;100.00;92679.53;4957361;29;20120;-79
2023/06/07 03:38:20;;;;;;;21.42;9.40;;;;;;;11.65;100.00;92692.44;4954163;29;20070;-78
2023/06/07 03:40:50;;;;;;;27.10;9.75;;;;;;;11.63;100.00;92699.03;4950772;29;20048;-78
2023/06/07 03:43:15;;;;;;;21.33;9.13;;;;;;;11.58;100.00;92689.41;4960885;29;20050;-79
2023/06/07 03:45:42;;;;;;;23.92;9.27;;;;;;;11.61;100.00;92685.41;4969257;28;20043;-79
2023/06/07 03:48:11;;;;;;;21.45;9.20;;;;;;;11.62;100.00;92689.63;4951527;29;20059;-79
2023/06/07 03:50:37;;;;;;;21.55;9.40;;;;;;;11.58;100.00;92686.78;4950752;29;20054;-79
2023/06/07 03:53:03;;;;;;;20.77;8.50;;;;;;;11.57;100.00;92687.06;4956122;29;20036;-79
2023/06/07 03:55:30;;;;;;;22.80;9.10;;;;;;;11.53;100.00;92675.56;4960163;29;20082;-78
2023/06/07 03:57:56;;;;;;;22.42;9.25;;;;;;;11.56;100.00;92675.03;4955487;29;20402;-79
2023/06/07 04:00:26;;;;;;;23.83;9.88;;;;;;;11.55;100.00;92683.94;4949733;29;20039;-79
2023/06/07 04:02:55;;;;;;;24.73;9.70;;;;;;;11.53;100.00;92683.44;4944310;29;20032;-78
2023/06/07 04:05:24;;;;;;;20.60;8.80;;;;;;;11.53;100.00;92683.44;4952110;29;20035;-79
2023/06/07 04:07:50;;;;;;;18.90;9.02;;;;;;;11.51;100.00;92682.97;4943913;28;20055;-78
2023/06/07 04:10:16;;;;;;;26.00;10.00;;;;;;;11.53;100.00;92675.56;4944816;29;20048;-80
2023/06/07 04:12:43;;;;;;;19.80;9.38;;;;;;;11.52;100.00;92663.56;4959994;29;20408;-79
2023/06/07 04:15:10;;;;;;;24.17;10.02;;;;;;;11.52;100.00;92666.16;4948521;28;20035;-79
2023/06/07 04:17:36;;;;;;;18.35;8.60;;;;;;;11.52;100.00;92659.06;4953231;28;20607;-79
2023/06/07 04:20:03;;;;;;;21.33;9.38;;;;;;;11.52;100.00;92668.78;4955766;28;20022;-79
2023/06/07 04:22:30;;;;;;;19.90;9.00;;;;;;;11.51;100.00;92664.63;4957859;28;20035;-79
2023/06/07 04:24:57;;;;;;;18.48;9.02;;;;;;;11.51;100.00;92668.03;4966865;28;20409;-79
2023/06/07 04:27:23;;;;;;;25.27;10.75;;;;;;;11.49;100.00;92656.25;4954561;28;20043;-79
2023/06/07 04:29:53;;;;;;;20.40;8.70;;;;;;;11.56;100.00;92654.06;4957733;28;20046;-79
2023/06/07 04:32:21;;;;;;;20.83;9.35;;;;;;;11.57;100.00;92660.84;4952521;28;20130;-79
2023/06/07 04:34:51;;;;;;;23.38;9.88;;;;;;;11.58;100.00;92663.19;4948784;28;20038;-79
2023/06/07 04:37:17;;;;;;;19.17;9.45;;;;;;;11.60;100.00;92665.53;4957143;28;20045;-79
2023/06/07 04:39:48;;;;;;;24.42;9.05;;;;;;;11.60;100.00;92670.78;4953627;28;20035;-79
2023/06/07 04:42:16;;;;;;;30.30;8.73;;;;;;;11.59;100.00;92672.59;4963864;28;20304;-80
2023/06/07 04:44:44;;;;;;;21.77;8.82;;;;;;;11.63;100.00;92667.56;4972471;28;20604;-79
2023/06/07 04:47:14;;;;;;;19.45;9.18;;;;;;;11.64;100.00;92672.53;4957681;28;20111;-79
2023/06/07 04:49:42;;;;;;;19.33;9.15;;;;;;;11.65;100.00;92674.06;4934913;28;20154;-79
2023/06/07 04:52:07;;;;;;;23.42;9.80;;;;;;;11.69;100.00;92670.88;4963346;29;20126;-79
2023/06/07 04:54:38;;;;;;;23.92;9.00;;;;;;;11.73;100.00;92669.22;4963136;29;20026;-80
2023/06/07 04:57:08;;;;;;;24.13;9.18;;;;;;;11.78;100.00;92671.78;4960855;28;20031;-79
2023/06/07 04:59:41;;;;;;;18.88;9.23;;;;;;;11.77;100.00;92670.97;4960973;28;20533;-80
2023/06/07 05:02:09;;;;;;;21.33;9.73;;;;;;;11.79;100.00;92679.34;4973678;28;20567;-80
2023/06/07 05:04:34;;;;;;;25.50;9.93;;;;;;;11.83;100.00;92675.09;4962117;28;20409;-81
2023/06/07 05:07:00;;;;;;;22.00;9.90;;;;;;;11.89;100.00;92683.69;4985397;28;20030;-80
2023/06/07 05:09:30;;;;;;;22.98;9.27;;;;;;;11.95;100.00;92676.50;4956367;29;20070;-80
2023/06/07 05:11:57;;;;;;;23.30;9.05;;;;;;;12.01;100.00;92670.09;4954311;28;20497;-82
2023/06/07 05:14:26;;;;;;;21.63;9.10;;;;;;;12.08;100.00;92675.75;4960413;29;20043;-81
2023/06/07 05:16:53;;;;;;;21.27;9.93;;;;;;;12.19;100.00;92673.72;4951245;29;20111;-81
2023/06/07 05:19:21;;;;;;;26.48;9.52;;;;;;;12.29;100.00;92673.50;4956928;29;20376;-81
2023/06/07 05:21:47;;;;;;;21.83;9.35;;;;;;;12.37;100.00;92675.47;4964121;29;20039;-80
2023/06/07 05:24:13;;;;;;;19.88;9.68;;;;;;;12.48;100.00;92679.44;4958959;29;20031;-81
2023/06/07 05:26:38;;;;;;;23.35;9.52;;;;;;;12.57;100.00;92679.53;4943854;29;20069;-80
2023/06/07 05:29:04;;;;;;;20.90;9.25;;;;;;;12.67;100.00;92679.31;4955582;28;20082;-80
2023/06/07 05:31:30;;;;;;;18.88;8.07;;;;;;;12.78;100.00;92671.25;4970786;28;20038;-79
2023/06/07 05:33:56;;;;;;;20.40;9.27;;;;;;;12.88;100.00;92666.56;4955474;29;20560;-79
2023/06/07 05:36:22;;;;;;;22.88;9.63;;;;;;;12.99;100.00;92661.06;4952707;29;20102;-79
2023/06/07 05:38:49;;;;;;;19.35;9.35;;;;;;;13.10;100.00;92663.19;4936835;29;20081;-79
2023/06/07 05:41:14;;;;;;;20.10;9.35;;;;;;;13.28;100.00;92673.88;4968132;28;20496;-80
2023/06/07 05:43:42;;;;;;;21.75;9.07;;;;;;;13.50;100.00;92665.97;4969217;28;20043;-80
2023/06/07 05:46:08;;;;;;;23.95;9.88;;;;;;;14.12;100.00;92669.75;4962554;29;20039;-80
2023/06/07 05:48:33;;;;;;;19.92;10.23;;;;;;;14.84;100.00;92667.81;4950430;29;20027;-80
2023/06/07 05:51:00;;;;;;;23.65;9.18;;;;;;;15.59;100.00;92669.25;4951451;29;20616;-80
2023/06/07 05:53:26;;;;;;;21.05;9.98;;;;;;;15.99;100.00;92671.72;4968291;29;20031;-80
2023/06/07 05:55:53;;;;;;;27.92;11.73;;;;;;;16.20;100.00;92671.03;4967833;28;20053;-80
2023/06/07 05:58:18;;;;;;;34.10;13.00;;;;;;;16.36;100.00;92666.75;4936098;29;20528;-80
2023/06/07 06:00:44;;;;;;;25.48;11.95;;;;;;;16.93;100.00;92667.44;4967724;29;20037;-79
2023/06/07 06:03:10;;;;;;;25.00;11.52;;;;;;;17.17;100.00;92672.13;4933944;29;20043;-81
2023/06/07 06:05:36;;;;;;;23.25;9.93;;;;;;;17.62;100.00;92666.94;4952102;29;20071;-81
2023/06/07 06:08:02;;;;;;;20.58;9.85;;;;;;;18.23;100.00;92673.53;4984586;28;20031;-80
2023/06/07 06:10:28;;;;;;;21.20;9.50;;;;;;;18.75;100.00;92661.53;4982154;28;20031;-79
2023/06/07 06:12:55;;;;;;;26.40;9.88;;;;;;;19.15;100.00;92672.25;4969495;28;20560;-79
2023/06/07 06:15:21;;;;;;;21.70;9.10;;;;;;;19.27;100.00;92674.88;4987567;28;20053;-80
2023/06/07 06:17:53;;;;;;;24.15;8.38;;;;;;;19.27;100.00;92668.78;4971809;28;20050;-80
2023/06/07 06:20:19;;;;;;;;;;;;;;;18.49;100.00;92670.59;4985924;28;20059;-80
2023/06/07 06:22:45;;;;;;;30.90;14.02;;;;;;;18.57;100.00;92676.88;4988763;28;19918;-80
2023/06/07 06:25:13;;;;;;;129.85;15.35;;;;;;;17.78;100.00;92663.69;4955164;28;20042;-80
2023/06/07 06:27:39;;;;;;;1953.03;43.45;;;;;;;16.86;100.00;92673.22;4988424;28;20035;-79
2023/06/07 06:30:06;;;;;;;34.13;15.65;;;;;;;16.79;100.00;92667.66;4988031;28;20031;-80
2023/06/07 06:32:31;;;;;;;28.63;14.55;;;;;;;17.27;100.00;92661.94;4987895;28;20027;-80
2023/06/07 06:34:57;;;;;;;26.10;10.38;;;;;;;17.63;100.00;92668.50;4970031;28;20061;-79
2023/06/07 06:37:23;;;;;;;21.70;8.80;;;;;;;17.69;100.00;92669.81;4988074;28;20098;-79
2023/06/07 06:39:51;;;;;;;34.17;14.55;;;;;;;17.43;100.00;92664.00;4987024;28;20035;-80
2023/06/07 06:42:16;;;;;;;32.35;16.23;;;;;;;17.07;100.00;92665.34;4987532;28;20043;-80
2023/06/07 06:45:08;;;;;;;34.40;15.65;;;;;;;16.94;100.00;92669.00;4966754;29;20069;-79
2023/06/07 06:47:41;;;;;;;34.30;14.15;;;;;;;17.35;100.00;92667.47;4971617;28;20036;-78
2023/06/07 06:50:10;;;;;;;35.92;14.27;;;;;;;17.51;100.00;92665.00;4972011;28;20043;-78
2023/06/07 06:52:38;;;;;;;27.80;14.23;;;;;;;17.48;100.00;92666.44;4973746;28;20065;-78
2023/06/07 06:55:04;;;;;;;29.98;14.38;;;;;;;17.43;100.00;92664.75;4967153;28;20035;-78
2023/06/07 06:57:29;;;;;;;39.63;13.90;;;;;;;17.37;100.00;92666.03;4975022;28;20083;-78
2023/06/07 06:59:55;;;;;;;610.83;24.92;;;;;;;16.68;100.00;92669.09;4959601;28;20035;-78
2023/06/07 07:02:22;;;;;;;208.85;21.00;;;;;;;16.21;100.00;92669.91;4967386;28;20531;-79
2023/06/07 07:04:48;;;;;;;950.28;30.52;;;;;;;16.02;100.00;92672.94;4950132;29;20035;-80
2023/06/07 07:07:14;;;;;;;38.45;17.30;;;;;;;15.98;100.00;92672.78;4965350;28;20095;-79
2023/06/07 07:09:39;;;;;;;33.50;15.60;;;;;;;16.17;100.00;92674.31;4956736;28;20038;-80
2023/06/07 07:12:06;;;;;;;33.58;16.98;;;;;;;16.54;100.00;92674.63;4961052;28;20043;-78
2023/06/07 07:14:32;;;;;;;33.28;15.93;;;;;;;16.84;100.00;92681.50;4973472;28;20118;-79
2023/06/07 07:16:57;;;;;;;38.45;15.40;;;;;;;17.15;100.00;92674.31;4970846;28;20528;-78
2023/06/07 07:19:23;;;;;;;28.67;14.52;;;;;;;17.56;100.00;92678.03;4966836;28;20039;-80
2023/06/07 07:21:49;;;;;;;30.73;14.05;;;;;;;17.97;100.00;92679.88;4958218;28;20027;-79
2023/06/07 07:24:14;;;;;;;30.95;13.63;;;;;;;18.10;100.00;92678.81;4959631;28;20027;-78
2023/06/07 07:26:40;;;;;;;28.30;13.02;;;;;;;18.16;100.00;92683.91;4974763;28;20042;-77
2023/06/07 07:29:06;;;;;;;27.27;13.43;;;;;;;17.88;100.00;92684.50;4972574;28;20117;-79
2023/06/07 07:31:33;;;;;;;28.73;14.15;;;;;;;17.61;100.00;92689.22;4957846;28;20051;-79
2023/06/07 07:34:03;;;;;;;28.63;13.07;;;;;;;17.54;100.00;92690.81;4960206;29;20031;-79
2023/06/07 07:36:33;;;;;;;33.53;13.82;;;;;;;17.65;100.00;92679.53;4962342;28;20058;-79
2023/06/07 07:39:04;;;;;;;37.90;14.18;;;;;;;17.72;100.00;92684.31;4973209;28;20031;-79
2023/06/07 07:41:31;;;;;;;31.10;12.98;;;;;;;17.73;100.00;92687.72;4972840;28;20042;-79
2023/06/07 07:43:57;;;;;;;29.75;13.82;;;;;;;17.86;100.00;92684.03;4969261;28;20106;-79
2023/06/07 07:46:22;;;;;;;32.03;13.60;;;;;;;18.27;100.00;92691.09;4941419;29;20067;-80
2023/06/07 07:48:48;;;;;;;26.63;13.40;;;;;;;18.48;100.00;92684.94;4970479;28;20035;-79
2023/06/07 07:51:14;;;;;;;42.33;13.13;;;;;;;18.42;100.00;92687.03;4971032;28;20039;-79
2023/06/07 07:53:42;;;;;;;32.85;14.52;;;;;;;18.55;100.00;92690.47;4970517;28;20045;-79
2023/06/07 07:56:08;;;;;;;26.27;11.52;;;;;;;18.67;100.00;92685.19;4980834;28;20022;-80
2023/06/07 07:58:33;;;;;;;30.00;13.73;;;;;;;18.51;100.00;92684.28;4958807;29;20039;-79
2023/06/07 08:00:59;;;;;;;29.85;12.40;;;;;;;18.79;100.00;92689.72;4973577;28;20035;-79
2023/06/07 08:03:25;;;;;;;26.67;12.63;;;;;;;18.82;100.00;92688.28;4960169;28;20264;-80
2023/06/07 08:05:50;;;;;;;32.70;12.93;;;;;;;18.44;100.00;92694.66;4956601;28;20031;-79
2023/06/07 08:08:16;;;;;;;29.30;12.30;;;;;;;18.89;100.00;92694.59;4978165;28;20096;-79
2023/06/07 08:10:42;;;;;;;27.25;12.18;;;;;;;19.08;100.00;92687.97;4973724;28;20063;-78
2023/06/07 08:13:08;;;;;;;30.13;12.25;;;;;;;19.25;100.00;92694.88;4978328;28;20503;-80
2023/06/07 08:15:34;;;;;;;24.75;11.82;;;;;;;18.96;100.00;92677.34;4976873;28;20129;-79
2023/06/07 08:17:59;;;;;;;25.23;12.13;;;;;;;18.93;100.00;92692.03;4966169;28;20043;-79
2023/06/07 08:20:25;;;;;;;25.88;12.13;;;;;;;19.00;100.00;92683.53;4981701;28;20043;-78
2023/06/07 08:22:50;;;;;;;31.98;11.52;;;;;;;18.74;100.00;92689.94;4960284;28;20054;-79
2023/06/07 08:25:16;;;;;;;28.73;13.60;;;;;;;18.82;100.00;92694.38;4975726;28;20043;-79
2023/06/07 08:27:42;;;;;;;28.48;12.35;;;;;;;18.72;100.00;92684.94;4973269;28;20502;-78
2023/06/07 08:30:09;;;;;;;28.42;12.60;;;;;;;18.45;100.00;92688.25;4963557;28;20054;-78
2023/06/07 08:32:35;;;;;;;27.27;12.93;;;;;;;18.49;100.00;92687.28;4964547;28;20395;-79
2023/06/07 08:35:00;;;;;;;29.98;13.25;;;;;;;18.58;100.00;92689.06;4979339;28;20039;-79
2023/06/07 08:37:26;;;;;;;26.75;11.70;;;;;;;18.72;100.00;92690.25;4975634;28;20043;-78
2023/06/07 08:39:51;;;;;;;27.88;12.63;;;;;;;18.88;100.00;92693.03;4966609;28;20034;-78
2023/06/07 08:42:17;;;;;;;24.58;12.18;;;;;;;18.59;100.00;92693.22;4953617;28;20059;-79
2023/06/07 08:44:43;;;;;;;32.53;12.70;;;;;;;18.59;100.00;92694.00;4973734;28;20027;-80
2023/06/07 08:47:11;;;;;;;25.33;11.73;;;;;;;18.51;100.00;92689.59;4966462;28;20489;-78
2023/06/07 08:49:39;;;;;;;28.08;11.80;;;;;;;18.79;100.00;92697.69;4974325;28;20035;-79
2023/06/07 08:52:08;;;;;;;30.30;11.98;;;;;;;18.46;100.00;92706.50;4973891;28;20039;-80
2023/06/07 08:54:40;;;;;;;26.77;11.90;;;;;;;18.54;100.00;92704.06;4980913;28;20130;-78
2023/06/07 08:57:06;;;;;;;;;;;;;;;18.61;100.00;92699.75;4981303;28;20492;-79
2023/06/07 08:59:32;;;;;;;34.28;12.35;;;;;;;18.48;100.00;92701.59;4976214;28;19957;-78
2023/06/07 09:01:58;;;;;;;31.92;12.13;;;;;;;18.51;100.00;92705.50;4974109;28;20041;-79
2023/06/07 09:04:24;;;;;;;31.50;11.98;;;;;;;18.46;100.00;92703.03;4972626;28;20058;-79
2023/06/07 09:06:51;;;;;;;24.83;11.85;;;;;;;18.62;100.00;92703.16;4972951;28;20042;-78
2023/06/07 09:09:16;;;;;;;21.23;9.50;;;;;;;19.11;100.00;92711.91;4973733;28;20134;-79
2023/06/07 09:11:42;;;;;;;24.15;9.88;;;;;;;19.51;100.00;92713.09;4971339;28;20075;-79
2023/06/07 09:14:11;;;;;;;23.77;10.27;;;;;;;19.75;100.00;92702.41;4975986;28;20045;-79
2023/06/07 09:16:56;;;;;;;20.38;9.82;;;;;;;19.61;100.00;92706.53;4979085;28;20107;-79
2023/06/07 09:19:39;;;;;;;19.02;8.68;;;;;;;19.23;100.00;92703.19;4975830;28;20051;-79
2023/06/07 09:22:07;;;;;;;24.45;9.45;;;;;;;19.44;100.00;92703.03;4971288;28;20035;-80
2023/06/07 09:24:34;;;;;;;17.85;8.75;;;;;;;19.39;100.00;92710.47;4974895;28;20046;-80
2023/06/07 09:27:01;;;;;;;20.50;8.70;;;;;;;19.58;100.00;92713.28;4955150;28;20031;-79
2023/06/07 09:29:29;;;;;;;30.45;8.07;;;;;;;19.65;100.00;92716.13;4978517;28;20039;-79
2023/06/07 09:32:24;;;;;;;16.88;7.60;;;;;;;20.11;100.00;92713.25;4971536;28;20061;-79
2023/06/07 09:34:52;;;;;;;18.13;8.27;;;;;;;20.17;100.00;92715.31;4955149;28;20531;-79
2023/06/07 09:37:20;;;;;;;21.00;8.23;;;;;;;19.81;100.00;92710.16;4978478;28;20039;-79
2023/06/07 09:39:51;;;;;;;17.83;7.95;;;;;;;20.25;100.00;92707.53;4972697;28;20039;-80
2023/06/07 09:42:17;;;;;;;14.02;7.40;;;;;;;20.49;100.00;92699.41;4960401;28;20042;-79
2023/06/07 09:44:43;;;;;;;17.67;8.57;;;;;;;20.21;100.00;92704.00;4979721;28;20543;-80
2023/06/07 09:47:23;;;;;;;16.67;8.13;;;;;;;20.22;100.00;92700.22;4981497;28;20039;-79
2023/06/07 09:49:48;;;;;;;17.27;7.78;;;;;;;20.46;100.00;92696.66;4972654;28;20031;-79
2023/06/07 09:52:15;;;;;;;15.25;8.02;;;;;;;20.67;100.00;92691.88;4961700;28;20034;-79
2023/06/07 09:54:45;;;;;;;14.15;7.85;;;;;;;20.12;100.00;92693.50;4970550;28;20022;-79
2023/06/07 09:57:27;;;;;;;12.40;6.45;;;;;;;20.24;100.00;92688.16;4976317;28;20042;-80
2023/06/07 10:00:10;;;;;;;15.05;6.72;;;;;;;19.92;100.00;92684.66;4972972;28;20129;-79
2023/06/07 10:02:41;;;;;;;15.00;7.20;;;;;;;19.99;100.00;92690.13;4978419;28;20038;-78
2023/06/07 10:05:07;;;;;;;20.00;7.72;;;;;;;19.86;100.00;92688.66;4974127;28;20031;-79
2023/06/07 10:07:36;;;;;;;19.05;8.63;;;;;;;19.82;100.00;92682.50;4965176;28;20560;-78
2023/06/07 10:10:03;;;;;;;14.80;7.15;;;;;;;19.63;100.00;92673.22;4978631;28;20019;-79
2023/06/07 10:12:32;;;;;;;13.63;7.15;;;;;;;19.22;100.00;92682.28;4968713;28;20089;-80
2023/06/07 10:15:02;;;;;;;15.65;7.70;;;;;;;18.88;100.00;92689.63;4976724;28;20022;-80
2023/06/07 10:17:40;;;;;;;15.40;7.85;;;;;;;19.00;100.00;92679.00;4972589;28;20106;-79
2023/06/07 10:20:11;;;;;;;17.67;8.45;;;;;;;19.53;100.00;92684.31;4971534;28;20102;-79
2023/06/07 10:22:41;;;;;;;18.35;8.70;;;;;;;19.70;100.00;92684.09;4965732;28;20444;-79
2023/06/07 10:25:18;;;;;;;20.30;8.05;;;;;;;19.88;99.71;92678.47;4967216;28;20027;-79
2023/06/07 10:28:05;;;;;;;13.63;6.03;;;;;;;19.88;100.00;92681.13;4960467;28;20027;-78
2023/06/07 10:30:34;;;;;;;14.02;7.80;;;;;;;20.03;100.00;92674.31;4970519;28;20058;-79
2023/06/07 10:33:03;;;;;;;13.13;6.13;;;;;;;19.79;100.00;92678.59;4976683;28;20023;-77
2023/06/07 10:35:29;;;;;;;18.67;9.10;;;;;;;19.81;100.00;92671.06;4953570;28;20039;-78
2023/06/07 10:37:55;;;;;;;15.75;7.82;;;;;;;20.12;100.00;92670.38;4975684;28;20057;-79
2023/06/07 10:40:22;;;;;;;14.00;6.43;;;;;;;20.30;100.00;92665.50;4976824;28;20034;-78
2023/06/07 10:42:49;;;;;;;16.70;7.63;;;;;;;20.17;100.00;92662.16;4960572;28;20437;-79
2023/06/07 10:45:19;;;;;;;14.82;8.10;;;;;;;20.20;100.00;92659.91;4977224;28;20059;-79
2023/06/07 10:47:48;;;;;;;15.45;6.22;;;;;;;20.18;100.00;92665.59;4974391;28;20059;-79
2023/06/07 10:50:30;;;;;;;22.30;7.47;;;;;;;19.91;100.00;92672.47;4976844;28;20057;-79
2023/06/07 10:53:00;;;;;;;12.60;6.05;;;;;;;19.52;100.00;92669.50;4976172;28;20043;-78
2023/06/07 10:55:31;;;;;;;12.50;6.90;;;;;;;19.89;99.24;92664.84;4973827;28;20050;-79
2023/06/07 10:58:00;;;;;;;13.32;6.05;;;;;;;20.12;100.00;92667.72;4964228;29;20035;-80
2023/06/07 11:00:30;;;;;;;13.55;7.28;;;;;;;20.12;100.00;92651.78;4944219;28;20041;-79
2023/06/07 11:03:04;;;;;;;11.32;6.35;;;;;;;19.98;100.00;92654.06;4969311;28;20050;-78
2023/06/07 11:05:52;;;;;;;14.15;6.43;;;;;;;20.03;99.57;92658.34;4979311;28;20094;-79
2023/06/07 11:08:28;;;;;;;12.73;6.40;;;;;;;20.20;94.59;92652.72;4960102;28;20042;-79
2023/06/07 11:11:04;;;;;;;12.60;6.88;;;;;;;20.21;98.08;92648.19;4975477;28;20420;-79
2023/06/07 11:13:38;;;;;;;13.45;5.80;;;;;;;20.12;94.05;92646.44;4959219;29;20049;-79
2023/06/07 11:16:22;;;;;;;15.65;7.25;;;;;;;20.16;99.98;92646.56;4971819;28;20522;-79
2023/06/07 11:18:56;;;;;;;14.15;7.20;;;;;;;20.09;99.94;92635.75;4956838;28;20050;-79